sensor_id;sensor_type;location;lat;lon;timestamp;pressure;altitude;pressure_sealevel;temperature
58909;BMP280;44690;48.154;17.102;2022-08-19T00:00:41;98935.16;;;24.10
58909;BMP280;44690;48.154;17.102;2022-08-19T00:02:14;98932.38;;;24.08
58909;BMP280;44690;48.154;17.102;2022-08-19T00:03:47;98930.22;;;24.03
58909;BMP280;44690;48.154;17.102;2022-08-19T00:05:20;98930.97;;;24.07
58909;BMP280;44690;48.154;17.102;2022-08-19T00:06:53;98925.41;;;24.05
58909;BMP280;44690;48.154;17.102;2022-08-19T00:08:25;98926.13;;;24.08
58909;BMP280;44690;48.154;17.102;2022-08-19T00:09:58;98932.38;;;24.10
58909;BMP280;44690;48.154;17.102;2022-08-19T00:11:30;98924.78;;;24.11
58909;BMP280;44690;48.154;17.102;2022-08-19T00:13:03;98920.53;;;24.06
58909;BMP280;44690;48.154;17.102;2022-08-19T00:14:36;98923.31;;;24.06
58909;BMP280;44690;48.154;17.102;2022-08-19T00:16:10;98914.31;;;24.05
58909;BMP280;44690;48.154;17.102;2022-08-19T00:17:43;98910.81;;;24.01
58909;BMP280;44690;48.154;17.102;2022-08-19T00:19:16;98915.66;;;24.02
58909;BMP280;44690;48.154;17.102;2022-08-19T00:20:48;98916.31;;;23.99
58909;BMP280;44690;48.154;17.102;2022-08-19T00:22:21;98915.59;;;23.96
58909;BMP280;44690;48.154;17.102;2022-08-19T00:23:54;98912.03;;;23.88
58909;BMP280;44690;48.154;17.102;2022-08-19T00:25:27;98914.06;;;23.85
58909;BMP280;44690;48.154;17.102;2022-08-19T00:27:01;98913.97;;;23.77
58909;BMP280;44690;48.154;17.102;2022-08-19T00:28:54;98908.38;;;23.73
58909;BMP280;44690;48.154;17.102;2022-08-19T00:30:27;98911.84;;;23.71
58909;BMP280;44690;48.154;17.102;2022-08-19T00:32:02;98901.41;;;23.68
58909;BMP280;44690;48.154;17.102;2022-08-19T00:33:36;98911.06;;;23.65
58909;BMP280;44690;48.154;17.102;2022-08-19T00:35:09;98922.81;;;23.65
58909;BMP280;44690;48.154;17.102;2022-08-19T00:36:42;98919.34;;;23.63
58909;BMP280;44690;48.154;17.102;2022-08-19T00:38:14;98905.50;;;23.63
58909;BMP280;44690;48.154;17.102;2022-08-19T00:40:06;98909.72;;;23.68
58909;BMP280;44690;48.154;17.102;2022-08-19T00:41:39;98906.28;;;23.71
58909;BMP280;44690;48.154;17.102;2022-08-19T00:43:13;98908.47;;;23.81
58909;BMP280;44690;48.154;17.102;2022-08-19T00:44:50;98911.31;;;23.87
58909;BMP280;44690;48.154;17.102;2022-08-19T00:46:22;98913.47;;;23.93
58909;BMP280;44690;48.154;17.102;2022-08-19T00:47:54;98907.88;;;23.89
58909;BMP280;44690;48.154;17.102;2022-08-19T00:49:29;98919.03;;;23.95
58909;BMP280;44690;48.154;17.102;2022-08-19T00:51:04;98919.72;;;23.95
58909;BMP280;44690;48.154;17.102;2022-08-19T00:52:40;98914.88;;;23.94
58909;BMP280;44690;48.154;17.102;2022-08-19T00:54:18;98917.63;;;23.92
58909;BMP280;44690;48.154;17.102;2022-08-19T00:56:00;98923.84;;;23.90
58909;BMP280;44690;48.154;17.102;2022-08-19T00:57:37;98914.06;;;23.85
58909;BMP280;44690;48.154;17.102;2022-08-19T00:59:10;98919.56;;;23.81
58909;BMP280;44690;48.154;17.102;2022-08-19T01:00:44;98921.59;;;23.79
58909;BMP280;44690;48.154;17.102;2022-08-19T01:02:17;98923.63;;;23.74
58909;BMP280;44690;48.154;17.102;2022-08-19T01:03:49;98920.09;;;23.67
58909;BMP280;44690;48.154;17.102;2022-08-19T01:05:29;98929.81;;;23.68
58909;BMP280;44690;48.154;17.102;2022-08-19T01:07:02;98920.75;;;23.64
58909;BMP280;44690;48.154;17.102;2022-08-19T01:08:34;98924.19;;;23.62
58909;BMP280;44690;48.154;17.102;2022-08-19T01:10:13;98906.06;;;23.55
58909;BMP280;44690;48.154;17.102;2022-08-19T01:11:46;98909.53;;;23.56
58909;BMP280;44690;48.154;17.102;2022-08-19T01:13:21;98922.72;;;23.57
58909;BMP280;44690;48.154;17.102;2022-08-19T01:14:55;98918.56;;;23.56
58909;BMP280;44690;48.154;17.102;2022-08-19T01:16:31;98924.03;;;23.52
58909;BMP280;44690;48.154;17.102;2022-08-19T01:18:08;98914.22;;;23.43
58909;BMP280;44690;48.154;17.102;2022-08-19T01:19:42;98917.69;;;23.43
58909;BMP280;44690;48.154;17.102;2022-08-19T01:21:45;98903.81;;;23.43
58909;BMP280;44690;48.154;17.102;2022-08-19T01:23:20;98914.22;;;23.43
58909;BMP280;44690;48.154;17.102;2022-08-19T01:24:52;98903.81;;;23.41
58909;BMP280;44690;48.154;17.102;2022-08-19T01:26:27;98905.19;;;23.40
58909;BMP280;44690;48.154;17.102;2022-08-19T01:28:02;98910.69;;;23.38
58909;BMP280;44690;48.154;17.102;2022-08-19T01:29:43;98909.94;;;23.34
58909;BMP280;44690;48.154;17.102;2022-08-19T01:31:19;98908.53;;;23.33
58909;BMP280;44690;48.154;17.102;2022-08-19T01:32:59;98893.25;;;23.28
58909;BMP280;44690;48.154;17.102;2022-08-19T01:34:31;98908.50;;;23.31
58909;BMP280;44690;48.154;17.102;2022-08-19T01:36:09;98906.41;;;23.29
58909;BMP280;44690;48.154;17.102;2022-08-19T01:37:50;98909.16;;;23.27
58909;BMP280;44690;48.154;17.102;2022-08-19T01:39:24;98906.31;;;23.23
58909;BMP280;44690;48.154;17.102;2022-08-19T01:40:57;98911.22;;;23.27
58909;BMP280;44690;48.154;17.102;2022-08-19T01:42:32;98902.25;;;23.28
58909;BMP280;44690;48.154;17.102;2022-08-19T01:44:07;98903.66;;;23.31
58909;BMP280;44690;48.154;17.102;2022-08-19T01:45:50;98902.41;;;23.38
58909;BMP280;44690;48.154;17.102;2022-08-19T01:48:54;98902.41;;;23.40
58909;BMP280;44690;48.154;17.102;2022-08-19T01:50:27;98905.91;;;23.43
58909;BMP280;44690;48.154;17.102;2022-08-19T01:52:00;98910.81;;;23.49
58909;BMP280;44690;48.154;17.102;2022-08-19T01:53:33;98911.56;;;23.49
58909;BMP280;44690;48.154;17.102;2022-08-19T01:55:08;98905.28;;;23.49
58909;BMP280;44690;48.154;17.102;2022-08-19T01:56:41;98910.81;;;23.47
58909;BMP280;44690;48.154;17.102;2022-08-19T01:58:19;98914.91;;;23.41
58909;BMP280;44690;48.154;17.102;2022-08-19T01:59:52;98918.25;;;23.36
58909;BMP280;44690;48.154;17.102;2022-08-19T02:01:25;98914.81;;;23.35
58909;BMP280;44690;48.154;17.102;2022-08-19T02:03:02;98915.53;;;23.38
58909;BMP280;44690;48.154;17.102;2022-08-19T02:04:34;98916.94;;;23.39
58909;BMP280;44690;48.154;17.102;2022-08-19T02:06:07;98912.13;;;23.43
58909;BMP280;44690;48.154;17.102;2022-08-19T02:07:40;98916.34;;;23.45
58909;BMP280;44690;48.154;17.102;2022-08-19T02:09:12;98919.72;;;23.39
58909;BMP280;44690;48.154;17.102;2022-08-19T02:10:45;98917.00;;;23.43
58909;BMP280;44690;48.154;17.102;2022-08-19T02:12:17;98919.75;;;23.43
58909;BMP280;44690;48.154;17.102;2022-08-19T02:13:49;98916.25;;;23.38
58909;BMP280;44690;48.154;17.102;2022-08-19T02:15:21;98927.44;;;23.49
58909;BMP280;44690;48.154;17.102;2022-08-19T02:16:54;98924.66;;;23.49
58909;BMP280;44690;48.154;17.102;2022-08-19T02:18:26;98924.03;;;23.50
58909;BMP280;44690;48.154;17.102;2022-08-19T02:19:59;98924.69;;;23.51
58909;BMP280;44690;48.154;17.102;2022-08-19T02:21:32;98923.31;;;23.52
58909;BMP280;44690;48.154;17.102;2022-08-19T02:23:06;98933.13;;;23.59
58909;BMP280;44690;48.154;17.102;2022-08-19T02:24:44;98930.41;;;23.63
58909;BMP280;44690;48.154;17.102;2022-08-19T02:26:17;98934.63;;;23.66
58909;BMP280;44690;48.154;17.102;2022-08-19T02:27:51;98920.75;;;23.64
58909;BMP280;44690;48.154;17.102;2022-08-19T02:29:23;98915.22;;;23.66
58909;BMP280;44690;48.154;17.102;2022-08-19T02:30:56;98930.53;;;23.71
58909;BMP280;44690;48.154;17.102;2022-08-19T02:32:28;98911.09;;;23.69
58909;BMP280;44690;48.154;17.102;2022-08-19T02:34:02;98909.72;;;23.70
58909;BMP280;44690;48.154;17.102;2022-08-19T02:35:35;98905.56;;;23.69
58909;BMP280;44690;48.154;17.102;2022-08-19T02:37:07;98908.28;;;23.65
58909;BMP280;44690;48.154;17.102;2022-08-19T02:39:06;98908.28;;;23.65
58909;BMP280;44690;48.154;17.102;2022-08-19T02:40:38;98910.34;;;23.64
58909;BMP280;44690;48.154;17.102;2022-08-19T02:42:10;98907.56;;;23.62
58909;BMP280;44690;48.154;17.102;2022-08-19T02:43:43;98915.13;;;23.60
58909;BMP280;44690;48.154;17.102;2022-08-19T02:45:38;98922.03;;;23.59
58909;BMP280;44690;48.154;17.102;2022-08-19T02:47:12;98920.69;;;23.60
58909;BMP280;44690;48.154;17.102;2022-08-19T02:48:49;98921.41;;;23.62
58909;BMP280;44690;48.154;17.102;2022-08-19T02:50:23;98917.97;;;23.64
58909;BMP280;44690;48.154;17.102;2022-08-19T02:51:55;98922.09;;;23.63
58909;BMP280;44690;48.154;17.102;2022-08-19T02:53:28;98926.28;;;23.64
58909;BMP280;44690;48.154;17.102;2022-08-19T02:55:01;98922.78;;;23.61
58909;BMP280;44690;48.154;17.102;2022-08-19T02:56:37;98915.13;;;23.60
58909;BMP280;44690;48.154;17.102;2022-08-19T02:58:10;98924.16;;;23.60
58909;BMP280;44690;48.154;17.102;2022-08-19T02:59:42;98919.34;;;23.63
58909;BMP280;44690;48.154;17.102;2022-08-19T03:01:26;98917.91;;;23.60
58909;BMP280;44690;48.154;17.102;2022-08-19T03:02:59;98919.25;;;23.57
58909;BMP280;44690;48.154;17.102;2022-08-19T03:04:32;98920.63;;;23.54
58909;BMP280;44690;48.154;17.102;2022-08-19T03:06:13;98925.41;;;23.51
58909;BMP280;44690;48.154;17.102;2022-08-19T03:07:46;98925.41;;;23.51
58909;BMP280;44690;48.154;17.102;2022-08-19T03:09:19;98927.50;;;23.53
58909;BMP280;44690;48.154;17.102;2022-08-19T03:10:52;98928.22;;;23.53
58909;BMP280;44690;48.154;17.102;2022-08-19T03:12:25;98928.94;;;23.56
58909;BMP280;44690;48.154;17.102;2022-08-19T03:13:58;98924.13;;;23.58
58909;BMP280;44690;48.154;17.102;2022-08-19T03:15:30;98926.22;;;23.58
58909;BMP280;44690;48.154;17.102;2022-08-19T03:17:03;98930.34;;;23.59
58909;BMP280;44690;48.154;17.102;2022-08-19T03:18:36;98926.25;;;23.62
58909;BMP280;44690;48.154;17.102;2022-08-19T03:20:09;98928.34;;;23.63
58909;BMP280;44690;48.154;17.102;2022-08-19T03:21:44;98927.00;;;23.66
58909;BMP280;44690;48.154;17.102;2022-08-19T03:23:17;98930.47;;;23.67
58909;BMP280;44690;48.154;17.102;2022-08-19T03:24:49;98929.78;;;23.66
58909;BMP280;44690;48.154;17.102;2022-08-19T03:26:22;98929.81;;;23.68
58909;BMP280;44690;48.154;17.102;2022-08-19T03:27:54;98929.84;;;23.72
58909;BMP280;44690;48.154;17.102;2022-08-19T03:29:28;98926.44;;;23.76
58909;BMP280;44690;48.154;17.102;2022-08-19T03:31:09;98926.38;;;23.72
58909;BMP280;44690;48.154;17.102;2022-08-19T03:33:01;98927.06;;;23.70
58909;BMP280;44690;48.154;17.102;2022-08-19T03:34:37;98920.16;;;23.73
58909;BMP280;44690;48.154;17.102;2022-08-19T03:36:15;98927.13;;;23.76
58909;BMP280;44690;48.154;17.102;2022-08-19T03:37:48;98918.16;;;23.80
58909;BMP280;44690;48.154;17.102;2022-08-19T03:39:21;98918.88;;;23.83
58909;BMP280;44690;48.154;17.102;2022-08-19T03:40:54;98928.59;;;23.84
58909;BMP280;44690;48.154;17.102;2022-08-19T03:42:26;98927.88;;;23.81
58909;BMP280;44690;48.154;17.102;2022-08-19T03:44:21;98932.72;;;23.81
58909;BMP280;44690;48.154;17.102;2022-08-19T03:46:13;98941.78;;;23.83
58909;BMP280;44690;48.154;17.102;2022-08-19T03:47:45;98935.53;;;23.85
58909;BMP280;44690;48.154;17.102;2022-08-19T03:49:19;98929.28;;;23.82
58909;BMP280;44690;48.154;17.102;2022-08-19T03:50:51;98924.38;;;23.79
58909;BMP280;44690;48.154;17.102;2022-08-19T03:52:24;98934.81;;;23.82
58909;BMP280;44690;48.154;17.102;2022-08-19T03:53:57;98938.25;;;23.81
58909;BMP280;44690;48.154;17.102;2022-08-19T03:55:29;98942.44;;;23.80
58909;BMP280;44690;48.154;17.102;2022-08-19T03:57:02;98939.66;;;23.80
58909;BMP280;44690;48.154;17.102;2022-08-19T03:58:35;98940.34;;;23.82
58909;BMP280;44690;48.154;17.102;2022-08-19T04:00:10;98941.78;;;23.83
58909;BMP280;44690;48.154;17.102;2022-08-19T04:01:45;98945.22;;;23.84
58909;BMP280;44690;48.154;17.102;2022-08-19T04:03:17;98939.59;;;23.77
58909;BMP280;44690;48.154;17.102;2022-08-19T04:04:53;98943.78;;;23.79
58909;BMP280;44690;48.154;17.102;2022-08-19T04:06:32;98945.13;;;23.75
58909;BMP280;44690;48.154;17.102;2022-08-19T04:08:05;98952.06;;;23.74
58909;BMP280;44690;48.154;17.102;2022-08-19T04:09:44;98949.97;;;23.77
58909;BMP280;44690;48.154;17.102;2022-08-19T04:11:20;98961.75;;;23.77
58909;BMP280;44690;48.154;17.102;2022-08-19T04:13:15;98945.13;;;23.75
58909;BMP280;44690;48.154;17.102;2022-08-19T04:14:48;98950.69;;;23.75
58909;BMP280;44690;48.154;17.102;2022-08-19T04:16:22;98957.72;;;23.85
58909;BMP280;44690;48.154;17.102;2022-08-19T04:18:05;98965.38;;;23.88
58909;BMP280;44690;48.154;17.102;2022-08-19T04:19:40;98966.84;;;23.93
58909;BMP280;44690;48.154;17.102;2022-08-19T04:21:24;98957.13;;;23.92
58909;BMP280;44690;48.154;17.102;2022-08-19T04:22:57;98966.25;;;24.03
58909;BMP280;44690;48.154;17.102;2022-08-19T04:24:30;98955.22;;;24.05
58909;BMP280;44690;48.154;17.102;2022-08-19T04:26:02;98959.44;;;24.12
58909;BMP280;44690;48.154;17.102;2022-08-19T04:27:36;98958.09;;;24.15
58909;BMP280;44690;48.154;17.102;2022-08-19T04:29:12;98952.56;;;24.17
58909;BMP280;44690;48.154;17.102;2022-08-19T04:30:47;98952.00;;;24.29
58909;BMP280;44690;48.154;17.102;2022-08-19T04:32:21;98959.00;;;24.38
58909;BMP280;44690;48.154;17.102;2022-08-19T04:33:59;98966.03;;;24.43
58909;BMP280;44690;48.154;17.102;2022-08-19T04:35:40;98965.38;;;24.51
58909;BMP280;44690;48.154;17.102;2022-08-19T04:37:13;98970.31;;;24.56
58909;BMP280;44690;48.154;17.102;2022-08-19T04:38:49;98971.03;;;24.63
58909;BMP280;44690;48.154;17.102;2022-08-19T04:40:23;98959.28;;;24.66
58909;BMP280;44690;48.154;17.102;2022-08-19T04:42:15;98962.19;;;24.78
58909;BMP280;44690;48.154;17.102;2022-08-19T04:44:07;98956.72;;;24.91
58909;BMP280;44690;48.154;17.102;2022-08-19T04:45:40;98965.13;;;25.01
58909;BMP280;44690;48.154;17.102;2022-08-19T04:47:15;98960.34;;;25.09
58909;BMP280;44690;48.154;17.102;2022-08-19T04:49:08;98968.09;;;25.21
58909;BMP280;44690;48.154;17.102;2022-08-19T04:50:44;98962.56;;;25.29
58909;BMP280;44690;48.154;17.102;2022-08-19T04:52:16;98964.69;;;25.39
58909;BMP280;44690;48.154;17.102;2022-08-19T04:53:49;98966.88;;;25.51
58909;BMP280;44690;48.154;17.102;2022-08-19T04:55:22;98969.00;;;25.60
58909;BMP280;44690;48.154;17.102;2022-08-19T04:56:55;98958.63;;;25.67
58909;BMP280;44690;48.154;17.102;2022-08-19T04:58:27;98957.94;;;25.74
58909;BMP280;44690;48.154;17.102;2022-08-19T05:00:00;98960.09;;;25.82
58909;BMP280;44690;48.154;17.102;2022-08-19T05:01:33;98958.78;;;26.09
58909;BMP280;44690;48.154;17.102;2022-08-19T05:03:05;98966.50;;;26.37
58909;BMP280;44690;48.154;17.102;2022-08-19T05:04:38;98966.53;;;26.62
58909;BMP280;44690;48.154;17.102;2022-08-19T05:06:13;98970.72;;;26.87
58909;BMP280;44690;48.154;17.102;2022-08-19T05:07:46;98979.03;;;27.19
58909;BMP280;44690;48.154;17.102;2022-08-19T05:09:18;98974.78;;;27.47
58909;BMP280;44690;48.154;17.102;2022-08-19T05:10:52;98969.16;;;27.69
58909;BMP280;44690;48.154;17.102;2022-08-19T05:12:25;98964.19;;;27.88
58909;BMP280;44690;48.154;17.102;2022-08-19T05:14:00;98966.81;;;28.14
58909;BMP280;44690;48.154;17.102;2022-08-19T05:15:33;98982.75;;;28.32
58909;BMP280;44690;48.154;17.102;2022-08-19T05:17:06;98976.41;;;28.44
58909;BMP280;44690;48.154;17.102;2022-08-19T05:18:58;98983.28;;;28.55
58909;BMP280;44690;48.154;17.102;2022-08-19T05:20:49;98991.66;;;28.57
58909;BMP280;44690;48.154;17.102;2022-08-19T05:22:41;98982.50;;;28.68
58909;BMP280;44690;48.154;17.102;2022-08-19T05:24:15;98988.88;;;28.57
58909;BMP280;44690;48.154;17.102;2022-08-19T05:25:48;98991.72;;;28.47
58909;BMP280;44690;48.154;17.102;2022-08-19T05:27:20;98988.94;;;28.49
58909;BMP280;44690;48.154;17.102;2022-08-19T05:28:53;98995.91;;;28.46
58909;BMP280;44690;48.154;17.102;2022-08-19T05:30:25;98991.78;;;28.41
58909;BMP280;44690;48.154;17.102;2022-08-19T05:32:17;98992.56;;;28.27
58909;BMP280;44690;48.154;17.102;2022-08-19T05:33:50;98990.47;;;28.25
58909;BMP280;44690;48.154;17.102;2022-08-19T05:35:22;98990.53;;;28.17
58909;BMP280;44690;48.154;17.102;2022-08-19T05:36:58;98989.13;;;28.18
58909;BMP280;44690;48.154;17.102;2022-08-19T05:38:31;98989.13;;;28.18
58909;BMP280;44690;48.154;17.102;2022-08-19T05:40:03;98991.13;;;28.32
58909;BMP280;44690;48.154;17.102;2022-08-19T05:41:41;98990.38;;;28.44
58909;BMP280;44690;48.154;17.102;2022-08-19T05:43:14;98984.78;;;28.44
58909;BMP280;44690;48.154;17.102;2022-08-19T05:44:50;98986.06;;;28.57
58909;BMP280;44690;48.154;17.102;2022-08-19T05:46:23;98979.13;;;28.56
58909;BMP280;44690;48.154;17.102;2022-08-19T05:47:59;98984.72;;;28.52
58909;BMP280;44690;48.154;17.102;2022-08-19T05:49:34;98988.19;;;28.54
58909;BMP280;44690;48.154;17.102;2022-08-19T05:51:07;98989.44;;;28.73
58909;BMP280;44690;48.154;17.102;2022-08-19T05:52:40;98998.13;;;29.15
58909;BMP280;44690;48.154;17.102;2022-08-19T05:54:18;98997.66;;;29.57
58909;BMP280;44690;48.154;17.102;2022-08-19T05:55:51;99002.94;;;29.83
58909;BMP280;44690;48.154;17.102;2022-08-19T05:57:23;99008.88;;;30.10
58909;BMP280;44690;48.154;17.102;2022-08-19T05:58:57;99011.56;;;30.18
58909;BMP280;44690;48.154;17.102;2022-08-19T06:00:30;99018.94;;;30.38
58909;BMP280;44690;48.154;17.102;2022-08-19T06:02:04;99032.72;;;30.54
58909;BMP280;44690;48.154;17.102;2022-08-19T06:03:36;99036.13;;;30.59
58909;BMP280;44690;48.154;17.102;2022-08-19T06:05:10;99038.88;;;30.63
58909;BMP280;44690;48.154;17.102;2022-08-19T06:06:42;99041.84;;;30.53
58909;BMP280;44690;48.154;17.102;2022-08-19T06:08:14;99056.66;;;30.45
58909;BMP280;44690;48.154;17.102;2022-08-19T06:09:47;99056.88;;;30.31
58909;BMP280;44690;48.154;17.102;2022-08-19T06:11:37;99055.66;;;30.16
58909;BMP280;44690;48.154;17.102;2022-08-19T06:13:10;99053.72;;;30.06
58909;BMP280;44690;48.154;17.102;2022-08-19T06:14:42;99055.69;;;30.14
58909;BMP280;44690;48.154;17.102;2022-08-19T06:16:15;99065.25;;;30.31
58909;BMP280;44690;48.154;17.102;2022-08-19T06:17:53;99074.34;;;30.30
58909;BMP280;44690;48.154;17.102;2022-08-19T06:19:26;99068.09;;;30.27
58909;BMP280;44690;48.154;17.102;2022-08-19T06:20:58;99066.16;;;30.17
58909;BMP280;44690;48.154;17.102;2022-08-19T06:22:31;99069.59;;;30.20
58909;BMP280;44690;48.154;17.102;2022-08-19T06:24:06;99071.03;;;30.17
58909;BMP280;44690;48.154;17.102;2022-08-19T06:25:39;99076.88;;;29.99
58909;BMP280;44690;48.154;17.102;2022-08-19T06:27:13;99079.88;;;29.82
58909;BMP280;44690;48.154;17.102;2022-08-19T06:28:45;99086.34;;;29.69
58909;BMP280;44690;48.154;17.102;2022-08-19T06:30:18;99097.56;;;29.65
58909;BMP280;44690;48.154;17.102;2022-08-19T06:31:53;99091.94;;;29.67
58909;BMP280;44690;48.154;17.102;2022-08-19T06:33:26;99093.97;;;29.72
58909;BMP280;44690;48.154;17.102;2022-08-19T06:34:59;99087.59;;;29.78
58909;BMP280;44690;48.154;17.102;2022-08-19T06:36:42;99086.13;;;29.85
58909;BMP280;44690;48.154;17.102;2022-08-19T06:38:15;99090.31;;;29.88
58909;BMP280;44690;48.154;17.102;2022-08-19T06:39:48;99088.72;;;30.03
58909;BMP280;44690;48.154;17.102;2022-08-19T06:41:21;99091.19;;;30.28
58909;BMP280;44690;48.154;17.102;2022-08-19T06:42:53;99097.94;;;30.47
58909;BMP280;44690;48.154;17.102;2022-08-19T06:44:28;99101.06;;;30.72
58909;BMP280;44690;48.154;17.102;2022-08-19T06:46:02;99097.97;;;30.90
58909;BMP280;44690;48.154;17.102;2022-08-19T06:47:37;99105.59;;;30.95
58909;BMP280;44690;48.154;17.102;2022-08-19T06:49:10;99119.16;;;30.79
58909;BMP280;44690;48.154;17.102;2022-08-19T06:50:45;99120.25;;;30.51
58909;BMP280;44690;48.154;17.102;2022-08-19T06:52:20;99120.72;;;30.16
58909;BMP280;44690;48.154;17.102;2022-08-19T06:53:54;99116.88;;;29.87
58909;BMP280;44690;48.154;17.102;2022-08-19T06:55:27;99115.06;;;29.61
58909;BMP280;44690;48.154;17.102;2022-08-19T06:57:05;99111.91;;;29.22
58909;BMP280;44690;48.154;17.102;2022-08-19T06:58:38;99104.50;;;28.94
58909;BMP280;44690;48.154;17.102;2022-08-19T07:00:10;99114.41;;;28.77
58909;BMP280;44690;48.154;17.102;2022-08-19T07:01:48;99108.91;;;28.57
58909;BMP280;44690;48.154;17.102;2022-08-19T07:03:21;99104.09;;;28.45
58909;BMP280;44690;48.154;17.102;2022-08-19T07:04:53;99107.63;;;28.40
58909;BMP280;44690;48.154;17.102;2022-08-19T07:06:25;99108.28;;;28.42
58909;BMP280;44690;48.154;17.102;2022-08-19T07:08:15;99104.75;;;28.56
58909;BMP280;44690;48.154;17.102;2022-08-19T07:09:50;99117.84;;;28.80
58909;BMP280;44690;48.154;17.102;2022-08-19T07:11:32;99107.16;;;29.08
58909;BMP280;44690;48.154;17.102;2022-08-19T07:13:05;99105.59;;;29.30
58909;BMP280;44690;48.154;17.102;2022-08-19T07:14:38;99099.88;;;29.42
58909;BMP280;44690;48.154;17.102;2022-08-19T07:16:13;99097.69;;;29.48
58909;BMP280;44690;48.154;17.102;2022-08-19T07:17:51;99086.50;;;29.48
58909;BMP280;44690;48.154;17.102;2022-08-19T07:19:25;99088.72;;;29.42
58909;BMP280;44690;48.154;17.102;2022-08-19T07:21:04;99090.75;;;29.45
58909;BMP280;44690;48.154;17.102;2022-08-19T07:22:40;99094.91;;;29.51
58909;BMP280;44690;48.154;17.102;2022-08-19T07:24:12;99104.00;;;29.51
58909;BMP280;44690;48.154;17.102;2022-08-19T07:25:45;99106.75;;;29.53
58909;BMP280;44690;48.154;17.102;2022-08-19T07:27:24;99101.13;;;29.55
58909;BMP280;44690;48.154;17.102;2022-08-19T07:28:56;99098.28;;;29.61
58909;BMP280;44690;48.154;17.102;2022-08-19T07:30:30;99093.97;;;29.72
58909;BMP280;44690;48.154;17.102;2022-08-19T07:32:03;99091.00;;;29.89
58909;BMP280;44690;48.154;17.102;2022-08-19T07:33:42;99091.56;;;29.99
58909;BMP280;44690;48.154;17.102;2022-08-19T07:35:15;99097.09;;;30.05
58909;BMP280;44690;48.154;17.102;2022-08-19T07:36:47;99092.28;;;29.96
58909;BMP280;44690;48.154;17.102;2022-08-19T07:38:19;99090.22;;;29.94
58909;BMP280;44690;48.154;17.102;2022-08-19T07:39:52;99092.25;;;30.00
58909;BMP280;44690;48.154;17.102;2022-08-19T07:41:26;99099.69;;;30.21
58909;BMP280;44690;48.154;17.102;2022-08-19T07:43:00;99098.16;;;30.31
58909;BMP280;44690;48.154;17.102;2022-08-19T07:44:35;99096.66;;;30.38
58909;BMP280;44690;48.154;17.102;2022-08-19T07:46:09;99090.34;;;30.39
58909;BMP280;44690;48.154;17.102;2022-08-19T07:47:43;99093.09;;;30.41
58909;BMP280;44690;48.154;17.102;2022-08-19T07:49:22;99086.81;;;30.41
58909;BMP280;44690;48.154;17.102;2022-08-19T07:50:57;99083.13;;;30.52
58909;BMP280;44690;48.154;17.102;2022-08-19T07:52:30;99083.03;;;30.60
58909;BMP280;44690;48.154;17.102;2022-08-19T07:54:03;99065.50;;;30.62
58909;BMP280;44690;48.154;17.102;2022-08-19T07:55:35;99065.13;;;30.84
58909;BMP280;44690;48.154;17.102;2022-08-19T07:57:14;99068.19;;;31.11
58909;BMP280;44690;48.154;17.102;2022-08-19T07:58:49;99059.41;;;31.31
58909;BMP280;44690;48.154;17.102;2022-08-19T08:00:22;99055.44;;;31.55
58909;BMP280;44690;48.154;17.102;2022-08-19T08:01:56;99055.63;;;31.80
58909;BMP280;44690;48.154;17.102;2022-08-19T08:03:32;99052.88;;;31.78
58909;BMP280;44690;48.154;17.102;2022-08-19T08:05:24;99048.59;;;31.81
58909;BMP280;44690;48.154;17.102;2022-08-19T08:07:17;99048.09;;;32.05
58909;BMP280;44690;48.154;17.102;2022-08-19T08:09:09;99049.59;;;32.31
58909;BMP280;44690;48.154;17.102;2022-08-19T08:10:47;99038.88;;;32.40
58909;BMP280;44690;48.154;17.102;2022-08-19T08:12:32;99030.94;;;32.48
58909;BMP280;44690;48.154;17.102;2022-08-19T08:14:06;99031.44;;;32.55
58909;BMP280;44690;48.154;17.102;2022-08-19T08:15:59;99023.78;;;32.53
58909;BMP280;44690;48.154;17.102;2022-08-19T08:17:31;99026.25;;;32.68
58909;BMP280;44690;48.154;17.102;2022-08-19T08:19:24;99027.63;;;32.69
58909;BMP280;44690;48.154;17.102;2022-08-19T08:20:58;99022.19;;;32.61
58909;BMP280;44690;48.154;17.102;2022-08-19T08:22:30;99016.59;;;32.61
58909;BMP280;44690;48.154;17.102;2022-08-19T08:24:26;99015.31;;;32.55
58909;BMP280;44690;48.154;17.102;2022-08-19T08:25:59;99018.66;;;32.62
58909;BMP280;44690;48.154;17.102;2022-08-19T08:27:40;99012.06;;;32.72
58909;BMP280;44690;48.154;17.102;2022-08-19T08:29:14;99011.81;;;32.82
58909;BMP280;44690;48.154;17.102;2022-08-19T08:30:48;99008.84;;;32.88
58909;BMP280;44690;48.154;17.102;2022-08-19T08:32:21;99012.84;;;33.22
58909;BMP280;44690;48.154;17.102;2022-08-19T08:33:56;99032.34;;;33.53
58909;BMP280;44690;48.154;17.102;2022-08-19T08:35:28;99039.38;;;33.54
58909;BMP280;44690;48.154;17.102;2022-08-19T08:37:01;99023.56;;;33.40
58909;BMP280;44690;48.154;17.102;2022-08-19T08:38:33;99015.22;;;33.38
58909;BMP280;44690;48.154;17.102;2022-08-19T08:40:26;99027.44;;;33.53
58909;BMP280;44690;48.154;17.102;2022-08-19T08:43:45;99029.22;;;33.88
58909;BMP280;44690;48.154;17.102;2022-08-19T08:45:18;99034.34;;;34.04
58909;BMP280;44690;48.154;17.102;2022-08-19T08:46:56;99040.41;;;34.35
58909;BMP280;44690;48.154;17.102;2022-08-19T08:48:52;99038.88;;;34.59
58909;BMP280;44690;48.154;17.102;2022-08-19T08:50:33;99043.63;;;34.65
58909;BMP280;44690;48.154;17.102;2022-08-19T08:52:20;99041.00;;;34.38
58909;BMP280;44690;48.154;17.102;2022-08-19T08:53:54;99036.91;;;34.12
58909;BMP280;44690;48.154;17.102;2022-08-19T08:55:29;99037.41;;;33.96
58909;BMP280;44690;48.154;17.102;2022-08-19T08:57:12;99045.53;;;33.83
58909;BMP280;44690;48.154;17.102;2022-08-19T08:59:12;99038.16;;;33.71
58909;BMP280;44690;48.154;17.102;2022-08-19T09:00:48;99039.50;;;33.72
58909;BMP280;44690;48.154;17.102;2022-08-19T09:02:21;99033.88;;;33.72
58909;BMP280;44690;48.154;17.102;2022-08-19T09:03:53;99032.28;;;33.80
58909;BMP280;44690;48.154;17.102;2022-08-19T09:05:41;99032.84;;;34.07
58909;BMP280;44690;48.154;17.102;2022-08-19T09:07:46;99032.53;;;34.17